FIG weather

Fria Airport
Fria, Boké Region, Guinea

Public forecast

Using degrees Celsius for public forecast. Weather courtesy of forecast.io.

METAR (pilot weather report)

Closest report is Conakry International Airport, 46.5 nm (86.2 km) S. Retrieved 2019/03/26 09:00 UTC (1 hour ago):

GUCY 260900Z 35008KT CAVOK 28/18 Q1012 NOSIG

TAF (pilot weather forecast)

Forecast is more than 12 hours old.

Closest forecast is Conakry International Airport, 46.5 nm (86.2 km) S. Retrieved 2019/03/21 18:55 UTC (5 days ago):

TAF GUCY 211700Z 2118/2224 32006KT 5000 HZ FEW015 SCT110 PROB30 TEMPO 2124/2207 VRB02KT 2000 BR FEW015 BKN110